BEL4CB EBBR-LIML
Flight info
| Callsign | BEL4CB |
|---|---|
| Flight time | 1h 21m |
| Altitude | 35000 |
| Route | ROUSY4G ROUSY DCT GTQ DCT DEVDI DCT ODINA ODINA1Y |
| Aircraft | A319/M-SDE3FGHIRWY/LB1 |
Departure
| Time | 2026-05-04 12:11 |
|---|---|
| Airport | Brussels Airport (EBBR) |
Arrival
| Time | 2026-05-04 13:32 |
|---|---|
| Airport | Milano Linate Airport (LIML) |
| Time | Latitude | Longitude | Altitude | Speed | Heading |
|---|---|---|---|---|---|
| 2026-05-04 11:43 | 50.90322 | 4.48318 | 119 ft | 0 kts | 155° |
| 2026-05-04 12:02 | 50.90355 | 4.48292 | 118 ft | 4 kts | 139° |
| 2026-05-04 12:03 | 50.90366 | 4.48266 | 117 ft | 3 kts | 70° |
| 2026-05-04 12:03 | 50.90365 | 4.48261 | 117 ft | 0 kts | 65° |
| 2026-05-04 12:05 | 50.90366 | 4.48266 | 117 ft | 2 kts | 65° |
| 2026-05-04 12:05 | 50.90384 | 4.48279 | 118 ft | 5 kts | 21° |
| 2026-05-04 12:05 | 50.90426 | 4.48322 | 119 ft | 9 kts | 55° |
| 2026-05-04 12:06 | 50.90460 | 4.48429 | 118 ft | 12 kts | 63° |
| 2026-05-04 12:06 | 50.90492 | 4.48549 | 120 ft | 11 kts | 65° |
| 2026-05-04 12:06 | 50.90555 | 4.48601 | 119 ft | 11 kts | 11° |
| 2026-05-04 12:06 | 50.90610 | 4.48680 | 120 ft | 12 kts | 66° |
| 2026-05-04 12:07 | 50.90645 | 4.48804 | 120 ft | 13 kts | 66° |
| 2026-05-04 12:07 | 50.90682 | 4.48935 | 118 ft | 13 kts | 65° |
| 2026-05-04 12:07 | 50.90723 | 4.49073 | 120 ft | 14 kts | 64° |
| 2026-05-04 12:07 | 50.90764 | 4.49212 | 121 ft | 14 kts | 65° |
| 2026-05-04 12:08 | 50.90804 | 4.49353 | 120 ft | 14 kts | 65° |
| 2026-05-04 12:08 | 50.90845 | 4.49495 | 121 ft | 14 kts | 65° |
| 2026-05-04 12:08 | 50.90888 | 4.49644 | 123 ft | 15 kts | 65° |
| 2026-05-04 12:08 | 50.90936 | 4.49800 | 122 ft | 16 kts | 53° |
| 2026-05-04 12:09 | 50.91027 | 4.49904 | 120 ft | 8 kts | 22° |
| 2026-05-04 12:09 | 50.91034 | 4.49909 | 119 ft | 2 kts | 22° |
| 2026-05-04 12:09 | 50.91063 | 4.49928 | 117 ft | 9 kts | 23° |
| 2026-05-04 12:09 | 50.91126 | 4.49935 | 120 ft | 8 kts | 339° |
| 2026-05-04 12:10 | 50.91137 | 4.49876 | 118 ft | 2 kts | 247° |
| 2026-05-04 12:10 | 50.91048 | 4.49564 | 116 ft | 72 kts | 245° |
| 2026-05-04 12:10 | 50.90734 | 4.48481 | 120 ft | 141 kts | 245° |
| 2026-05-04 12:11 | 50.90275 | 4.46913 | 537 ft | 158 kts | 246° |
| 2026-05-04 12:11 | 50.89825 | 4.45326 | 1305 ft | 158 kts | 247° |
| 2026-05-04 12:11 | 50.89346 | 4.43759 | 2073 ft | 162 kts | 236° |
| 2026-05-04 12:11 | 50.88405 | 4.42774 | 2762 ft | 168 kts | 193° |
| 2026-05-04 12:12 | 50.87238 | 4.42887 | 3439 ft | 175 kts | 162° |
| 2026-05-04 12:12 | 50.86197 | 4.44105 | 3776 ft | 199 kts | 133° |
| 2026-05-04 12:12 | 50.85192 | 4.45833 | 4140 ft | 226 kts | 133° |
| 2026-05-04 12:12 | 50.84067 | 4.47759 | 4655 ft | 250 kts | 133° |
| 2026-05-04 12:13 | 50.82840 | 4.49843 | 5338 ft | 265 kts | 133° |
| 2026-05-04 12:14 | 50.73720 | 4.66342 | 10962 ft | 325 kts | 132° |
| 2026-05-04 12:15 | 50.72194 | 4.69096 | 11720 ft | 332 kts | 132° |
| 2026-05-04 12:15 | 50.70672 | 4.71869 | 12567 ft | 337 kts | 129° |
| 2026-05-04 12:15 | 50.69395 | 4.75004 | 13443 ft | 343 kts | 117° |
| 2026-05-04 12:15 | 50.68538 | 4.78545 | 14254 ft | 348 kts | 106° |
| 2026-05-04 12:16 | 50.67896 | 4.82190 | 15013 ft | 352 kts | 106° |
| 2026-05-04 12:16 | 50.67230 | 4.85915 | 15754 ft | 355 kts | 107° |
| 2026-05-04 12:16 | 50.66375 | 4.89570 | 16461 ft | 357 kts | 117° |
| 2026-05-04 12:16 | 50.65073 | 4.92907 | 17161 ft | 359 kts | 128° |
| 2026-05-04 12:17 | 50.63381 | 4.95812 | 17874 ft | 361 kts | 137° |
| 2026-05-04 12:17 | 50.61568 | 4.98592 | 18548 ft | 364 kts | 136° |
| 2026-05-04 12:17 | 50.59755 | 5.01398 | 19159 ft | 367 kts | 137° |
| 2026-05-04 12:17 | 50.57925 | 5.04239 | 19787 ft | 370 kts | 137° |
| 2026-05-04 12:18 | 50.56086 | 5.07097 | 20412 ft | 373 kts | 137° |
| 2026-05-04 12:18 | 50.54233 | 5.09975 | 21035 ft | 376 kts | 137° |
| 2026-05-04 12:18 | 50.52366 | 5.12866 | 21692 ft | 377 kts | 139° |
| 2026-05-04 12:18 | 50.50496 | 5.15749 | 22374 ft | 378 kts | 139° |
| 2026-05-04 12:19 | 50.48597 | 5.18670 | 22995 ft | 381 kts | 139° |
| 2026-05-04 12:19 | 50.46723 | 5.21546 | 23578 ft | 384 kts | 140° |
| 2026-05-04 12:19 | 50.44800 | 5.24495 | 24062 ft | 387 kts | 140° |
| 2026-05-04 12:19 | 50.42809 | 5.27595 | 23493 ft | 412 kts | 138° |
| 2026-05-04 12:20 | 50.40822 | 5.30728 | 24480 ft | 399 kts | 139° |
| 2026-05-04 12:20 | 50.38851 | 5.33759 | 25140 ft | 396 kts | 140° |
| 2026-05-04 12:20 | 50.36865 | 5.36757 | 25644 ft | 397 kts | 140° |
| 2026-05-04 12:20 | 50.34868 | 5.39754 | 26112 ft | 399 kts | 141° |
| 2026-05-04 12:21 | 50.32859 | 5.42778 | 26563 ft | 402 kts | 140° |
| 2026-05-04 12:21 | 50.30838 | 5.45835 | 27001 ft | 405 kts | 140° |
| 2026-05-04 12:21 | 50.28812 | 5.48912 | 27450 ft | 408 kts | 140° |
| 2026-05-04 12:21 | 50.26773 | 5.52015 | 27930 ft | 410 kts | 140° |
| 2026-05-04 12:22 | 50.24725 | 5.55125 | 28370 ft | 412 kts | 141° |
| 2026-05-04 12:22 | 50.22665 | 5.58247 | 28817 ft | 414 kts | 141° |
| 2026-05-04 12:22 | 50.20592 | 5.61385 | 29259 ft | 416 kts | 141° |
| 2026-05-04 12:22 | 50.18502 | 5.64542 | 29689 ft | 419 kts | 141° |
| 2026-05-04 12:23 | 50.16404 | 5.67708 | 30095 ft | 421 kts | 141° |
| 2026-05-04 12:23 | 50.14288 | 5.70898 | 30441 ft | 424 kts | 141° |
| 2026-05-04 12:23 | 50.12164 | 5.74091 | 30773 ft | 426 kts | 141° |
| 2026-05-04 12:23 | 50.10027 | 5.77236 | 31107 ft | 427 kts | 144° |
| 2026-05-04 12:24 | 50.07647 | 5.79953 | 31437 ft | 423 kts | 153° |
| 2026-05-04 12:24 | 50.05042 | 5.82038 | 31757 ft | 420 kts | 162° |
| 2026-05-04 12:24 | 50.02297 | 5.83530 | 32191 ft | 416 kts | 166° |
| 2026-05-04 12:24 | 49.99554 | 5.84937 | 32660 ft | 415 kts | 166° |
| 2026-05-04 12:25 | 49.96817 | 5.86347 | 33119 ft | 414 kts | 166° |
| 2026-05-04 12:25 | 49.94092 | 5.87756 | 33577 ft | 413 kts | 166° |
| 2026-05-04 12:25 | 49.91370 | 5.89163 | 34041 ft | 411 kts | 166° |
| 2026-05-04 12:25 | 49.88655 | 5.90566 | 34405 ft | 411 kts | 166° |
| 2026-05-04 12:26 | 49.85939 | 5.91966 | 34728 ft | 412 kts | 166° |
| 2026-05-04 12:26 | 49.83209 | 5.93368 | 35041 ft | 414 kts | 166° |
| 2026-05-04 12:26 | 49.80476 | 5.94773 | 35327 ft | 415 kts | 166° |
| 2026-05-04 12:26 | 49.77724 | 5.96186 | 35643 ft | 415 kts | 166° |
| 2026-05-04 12:27 | 49.74983 | 5.97589 | 35942 ft | 416 kts | 166° |
| 2026-05-04 12:27 | 49.72236 | 5.98992 | 36221 ft | 416 kts | 166° |
| 2026-05-04 12:27 | 49.69477 | 6.00402 | 36527 ft | 417 kts | 166° |
| 2026-05-04 12:27 | 49.66725 | 6.01806 | 36875 ft | 418 kts | 166° |
| 2026-05-04 12:28 | 49.63956 | 6.03218 | 37012 ft | 418 kts | 166° |
| 2026-05-04 12:28 | 49.61201 | 6.04624 | 37028 ft | 416 kts | 166° |
| 2026-05-04 12:28 | 49.55719 | 6.07412 | 37026 ft | 414 kts | 166° |
| 2026-05-04 12:29 | 49.50291 | 6.10169 | 37026 ft | 414 kts | 165° |
| 2026-05-04 12:29 | 49.45216 | 6.14488 | 37024 ft | 425 kts | 146° |
| 2026-05-04 12:30 | 49.40618 | 6.20217 | 37021 ft | 425 kts | 146° |
| 2026-05-04 12:30 | 49.36009 | 6.25919 | 36995 ft | 426 kts | 146° |
| 2026-05-04 12:31 | 49.31380 | 6.31616 | 36989 ft | 425 kts | 146° |
| 2026-05-04 12:31 | 49.26764 | 6.37289 | 36992 ft | 426 kts | 146° |
| 2026-05-04 12:32 | 49.19835 | 6.45805 | 37010 ft | 426 kts | 146° |
| 2026-05-04 12:33 | 49.15239 | 6.51427 | 37014 ft | 426 kts | 146° |
| 2026-05-04 12:33 | 49.10603 | 6.57086 | 37008 ft | 426 kts | 146° |
| 2026-05-04 12:34 | 49.05966 | 6.62730 | 36993 ft | 426 kts | 146° |
| 2026-05-04 12:34 | 49.01332 | 6.68359 | 37000 ft | 426 kts | 146° |
| 2026-05-04 12:35 | 48.96402 | 6.73164 | 37011 ft | 417 kts | 160° |
| 2026-05-04 12:35 | 48.91108 | 6.76763 | 37009 ft | 417 kts | 160° |
| 2026-05-04 12:36 | 48.85814 | 6.80375 | 37001 ft | 417 kts | 160° |
| 2026-05-04 12:36 | 48.80554 | 6.83961 | 37009 ft | 417 kts | 160° |
| 2026-05-04 12:37 | 48.75248 | 6.87556 | 37016 ft | 418 kts | 160° |
| 2026-05-04 12:37 | 48.69941 | 6.91142 | 37025 ft | 418 kts | 160° |
| 2026-05-04 12:38 | 48.64631 | 6.94732 | 37028 ft | 418 kts | 160° |
| 2026-05-04 12:38 | 48.59319 | 6.98313 | 37001 ft | 418 kts | 160° |
| 2026-05-04 12:39 | 48.54007 | 7.01889 | 37008 ft | 418 kts | 160° |
| 2026-05-04 12:39 | 48.48686 | 7.05463 | 37012 ft | 418 kts | 160° |
| 2026-05-04 12:40 | 48.43364 | 7.09018 | 37005 ft | 418 kts | 160° |
| 2026-05-04 12:40 | 48.38046 | 7.12563 | 37002 ft | 418 kts | 160° |
| 2026-05-04 12:41 | 48.32716 | 7.16115 | 36999 ft | 419 kts | 160° |
| 2026-05-04 12:41 | 48.28284 | 7.19063 | 37001 ft | 420 kts | 160° |
| 2026-05-04 12:42 | 48.22948 | 7.22603 | 37001 ft | 420 kts | 160° |
| 2026-05-04 12:42 | 48.17605 | 7.26144 | 36989 ft | 419 kts | 160° |
| 2026-05-04 12:43 | 48.12256 | 7.29676 | 36977 ft | 420 kts | 160° |
| 2026-05-04 12:43 | 48.06903 | 7.33196 | 36983 ft | 421 kts | 160° |
| 2026-05-04 12:44 | 48.01539 | 7.36721 | 36991 ft | 421 kts | 160° |
| 2026-05-04 12:44 | 47.96174 | 7.40243 | 36985 ft | 422 kts | 160° |
| 2026-05-04 12:45 | 47.90836 | 7.43729 | 37001 ft | 422 kts | 160° |
| 2026-05-04 12:45 | 47.85460 | 7.47244 | 37010 ft | 422 kts | 160° |
| 2026-05-04 12:46 | 47.80089 | 7.50747 | 37010 ft | 422 kts | 160° |
| 2026-05-04 12:46 | 47.74713 | 7.54239 | 37008 ft | 421 kts | 161° |
| 2026-05-04 12:47 | 47.69370 | 7.57833 | 36990 ft | 422 kts | 159° |
| 2026-05-04 12:47 | 47.64076 | 7.61630 | 36991 ft | 423 kts | 158° |
| 2026-05-04 12:48 | 47.58786 | 7.65438 | 36997 ft | 422 kts | 158° |
| 2026-05-04 12:48 | 47.53469 | 7.69182 | 36983 ft | 422 kts | 159° |
| 2026-05-04 12:49 | 47.48155 | 7.72875 | 36990 ft | 423 kts | 159° |
| 2026-05-04 12:49 | 47.42821 | 7.76583 | 36995 ft | 423 kts | 159° |
| 2026-05-04 12:50 | 47.37498 | 7.80293 | 36997 ft | 423 kts | 159° |
| 2026-05-04 12:50 | 47.32211 | 7.83980 | 36988 ft | 423 kts | 159° |
| 2026-05-04 12:51 | 47.26889 | 7.87682 | 36986 ft | 423 kts | 159° |
| 2026-05-04 12:51 | 47.21567 | 7.91371 | 36990 ft | 423 kts | 159° |
| 2026-05-04 12:52 | 47.16243 | 7.95048 | 36989 ft | 423 kts | 159° |
| 2026-05-04 12:52 | 47.10921 | 7.98714 | 36986 ft | 423 kts | 159° |
| 2026-05-04 12:53 | 47.05591 | 8.02372 | 36975 ft | 423 kts | 159° |
| 2026-05-04 12:53 | 47.00260 | 8.06034 | 36971 ft | 422 kts | 159° |
| 2026-05-04 12:54 | 46.94943 | 8.09685 | 36971 ft | 422 kts | 159° |
| 2026-05-04 12:54 | 46.89621 | 8.13319 | 36971 ft | 422 kts | 159° |
| 2026-05-04 12:55 | 46.84297 | 8.16949 | 36975 ft | 422 kts | 159° |
| 2026-05-04 12:55 | 46.78998 | 8.20556 | 36974 ft | 424 kts | 159° |
| 2026-05-04 12:56 | 46.73640 | 8.24181 | 36981 ft | 424 kts | 159° |
| 2026-05-04 12:56 | 46.68266 | 8.27813 | 36175 ft | 429 kts | 159° |
| 2026-05-04 12:56 | 46.65568 | 8.29640 | 35697 ft | 425 kts | 159° |
| 2026-05-04 12:57 | 46.62894 | 8.31453 | 35171 ft | 423 kts | 159° |
| 2026-05-04 12:57 | 46.60235 | 8.33248 | 34633 ft | 421 kts | 159° |
| 2026-05-04 12:57 | 46.57577 | 8.35034 | 34085 ft | 420 kts | 159° |
| 2026-05-04 12:57 | 46.54929 | 8.36817 | 33471 ft | 418 kts | 159° |
| 2026-05-04 12:58 | 46.52297 | 8.38593 | 32911 ft | 415 kts | 159° |
| 2026-05-04 12:58 | 46.49689 | 8.40351 | 32407 ft | 412 kts | 159° |
| 2026-05-04 12:58 | 46.47100 | 8.42094 | 31853 ft | 409 kts | 159° |
| 2026-05-04 12:58 | 46.44529 | 8.43820 | 31346 ft | 405 kts | 159° |
| 2026-05-04 12:59 | 46.42007 | 8.45507 | 30812 ft | 402 kts | 159° |
| 2026-05-04 12:59 | 46.39473 | 8.47199 | 30303 ft | 400 kts | 159° |
| 2026-05-04 12:59 | 46.36956 | 8.48875 | 29734 ft | 399 kts | 158° |
| 2026-05-04 12:59 | 46.34428 | 8.50556 | 29216 ft | 400 kts | 159° |
| 2026-05-04 13:00 | 46.31909 | 8.52233 | 28719 ft | 398 kts | 158° |
| 2026-05-04 13:00 | 46.29401 | 8.53902 | 28208 ft | 394 kts | 159° |
| 2026-05-04 13:00 | 46.26927 | 8.55547 | 27705 ft | 391 kts | 159° |
| 2026-05-04 13:00 | 46.24468 | 8.57186 | 27215 ft | 389 kts | 158° |
| 2026-05-04 13:01 | 46.22015 | 8.58821 | 26732 ft | 387 kts | 158° |
| 2026-05-04 13:01 | 46.19579 | 8.60441 | 26267 ft | 385 kts | 158° |
| 2026-05-04 13:01 | 46.17150 | 8.62052 | 25809 ft | 383 kts | 158° |
| 2026-05-04 13:01 | 46.14736 | 8.63650 | 25367 ft | 381 kts | 158° |
| 2026-05-04 13:02 | 46.12343 | 8.65231 | 24910 ft | 376 kts | 158° |
| 2026-05-04 13:02 | 46.09970 | 8.66811 | 24468 ft | 376 kts | 157° |
| 2026-05-04 13:02 | 46.07641 | 8.68500 | 24019 ft | 375 kts | 155° |
| 2026-05-04 13:02 | 46.05349 | 8.70287 | 23530 ft | 374 kts | 154° |
| 2026-05-04 13:03 | 46.03084 | 8.72116 | 23033 ft | 372 kts | 154° |
| 2026-05-04 13:03 | 46.00848 | 8.73930 | 22560 ft | 369 kts | 154° |
| 2026-05-04 13:03 | 45.98611 | 8.75727 | 22111 ft | 366 kts | 154° |
| 2026-05-04 13:03 | 45.96387 | 8.77494 | 21643 ft | 364 kts | 154° |
| 2026-05-04 13:04 | 45.94172 | 8.79237 | 21173 ft | 362 kts | 154° |
| 2026-05-04 13:04 | 45.91965 | 8.80963 | 20690 ft | 360 kts | 154° |
| 2026-05-04 13:04 | 45.89774 | 8.82666 | 20229 ft | 357 kts | 155° |
| 2026-05-04 13:04 | 45.87589 | 8.84361 | 19751 ft | 356 kts | 154° |
| 2026-05-04 13:05 | 45.85418 | 8.86046 | 19283 ft | 354 kts | 155° |
| 2026-05-04 13:05 | 45.83260 | 8.87717 | 18924 ft | 349 kts | 155° |
| 2026-05-04 13:05 | 45.81167 | 8.89341 | 18803 ft | 337 kts | 154° |
| 2026-05-04 13:05 | 45.79135 | 8.90920 | 18582 ft | 329 kts | 154° |
| 2026-05-04 13:06 | 45.77121 | 8.92482 | 18127 ft | 329 kts | 154° |
| 2026-05-04 13:06 | 45.75122 | 8.94028 | 17795 ft | 325 kts | 155° |
| 2026-05-04 13:06 | 45.73136 | 8.95560 | 17362 ft | 323 kts | 155° |
| 2026-05-04 13:06 | 45.71159 | 8.97083 | 16947 ft | 322 kts | 155° |
| 2026-05-04 13:07 | 45.69196 | 8.98594 | 16586 ft | 320 kts | 155° |
| 2026-05-04 13:07 | 45.67242 | 9.00101 | 16210 ft | 318 kts | 154° |
| 2026-05-04 13:07 | 45.65302 | 9.01600 | 15839 ft | 316 kts | 154° |
| 2026-05-04 13:07 | 45.63373 | 9.03091 | 15462 ft | 314 kts | 155° |
| 2026-05-04 13:08 | 45.61487 | 9.04545 | 15113 ft | 311 kts | 155° |
| 2026-05-04 13:08 | 45.59581 | 9.06009 | 14724 ft | 311 kts | 154° |
| 2026-05-04 13:08 | 45.57681 | 9.07465 | 14355 ft | 310 kts | 154° |
| 2026-05-04 13:08 | 45.55787 | 9.08913 | 14058 ft | 306 kts | 154° |
| 2026-05-04 13:09 | 45.53905 | 9.10352 | 13422 ft | 313 kts | 154° |
| 2026-05-04 13:09 | 45.51960 | 9.11826 | 12804 ft | 317 kts | 156° |
| 2026-05-04 13:09 | 45.49889 | 9.12770 | 12383 ft | 310 kts | 173° |
| 2026-05-04 13:09 | 45.47756 | 9.13051 | 11971 ft | 306 kts | 177° |
| 2026-05-04 13:10 | 45.45638 | 9.13288 | 11554 ft | 304 kts | 176° |
| 2026-05-04 13:10 | 45.43545 | 9.13522 | 11156 ft | 301 kts | 176° |
| 2026-05-04 13:10 | 45.41471 | 9.13756 | 10768 ft | 297 kts | 176° |
| 2026-05-04 13:10 | 45.39430 | 9.13984 | 10503 ft | 290 kts | 176° |
| 2026-05-04 13:11 | 45.37460 | 9.14203 | 10378 ft | 278 kts | 176° |
| 2026-05-04 13:11 | 45.35562 | 9.14413 | 10132 ft | 270 kts | 176° |
| 2026-05-04 13:11 | 45.33707 | 9.14617 | 9567 ft | 266 kts | 176° |
| 2026-05-04 13:11 | 45.31862 | 9.14822 | 8916 ft | 265 kts | 175° |
| 2026-05-04 13:12 | 45.30021 | 9.15028 | 8254 ft | 265 kts | 176° |
| 2026-05-04 13:12 | 45.28181 | 9.15236 | 7591 ft | 265 kts | 175° |
| 2026-05-04 13:12 | 45.26338 | 9.15446 | 6943 ft | 265 kts | 175° |
| 2026-05-04 13:12 | 45.24499 | 9.15654 | 6557 ft | 262 kts | 175° |
| 2026-05-04 13:13 | 45.22748 | 9.15851 | 6423 ft | 250 kts | 175° |
| 2026-05-04 13:13 | 45.21062 | 9.16120 | 6287 ft | 238 kts | 166° |
| 2026-05-04 13:13 | 45.19596 | 9.17121 | 6009 ft | 234 kts | 142° |
| 2026-05-04 13:13 | 45.18587 | 9.18902 | 5697 ft | 234 kts | 117° |
| 2026-05-04 13:14 | 45.18209 | 9.21135 | 5348 ft | 236 kts | 91° |
| 2026-05-04 13:14 | 45.18549 | 9.23391 | 5006 ft | 236 kts | 65° |
| 2026-05-04 13:14 | 45.19530 | 9.25247 | 4638 ft | 238 kts | 45° |
| 2026-05-04 13:14 | 45.20703 | 9.26905 | 4246 ft | 238 kts | 44° |
| 2026-05-04 13:15 | 45.21890 | 9.28532 | 3943 ft | 235 kts | 37° |
| 2026-05-04 13:15 | 45.23314 | 9.29586 | 3702 ft | 228 kts | 14° |
| 2026-05-04 13:15 | 45.24847 | 9.29819 | 3581 ft | 217 kts | 355° |
| 2026-05-04 13:15 | 45.26327 | 9.29658 | 3461 ft | 210 kts | 354° |
| 2026-05-04 13:16 | 45.27753 | 9.29506 | 3354 ft | 202 kts | 353° |
| 2026-05-04 13:16 | 45.29151 | 9.29355 | 3141 ft | 202 kts | 353° |
| 2026-05-04 13:16 | 45.30544 | 9.29206 | 2909 ft | 200 kts | 353° |
| 2026-05-04 13:16 | 45.31933 | 9.29058 | 2609 ft | 200 kts | 352° |
| 2026-05-04 13:17 | 45.33289 | 9.28913 | 2358 ft | 191 kts | 352° |
| 2026-05-04 13:17 | 45.34604 | 9.28772 | 2118 ft | 190 kts | 352° |
| 2026-05-04 13:17 | 45.35931 | 9.28628 | 1858 ft | 192 kts | 352° |
| 2026-05-04 13:17 | 45.37255 | 9.28488 | 1598 ft | 188 kts | 353° |
| 2026-05-04 13:18 | 45.38543 | 9.28349 | 1357 ft | 183 kts | 352° |
| 2026-05-04 13:18 | 45.39836 | 9.28210 | 1438 ft | 196 kts | 354° |
| 2026-05-04 13:18 | 45.41174 | 9.28064 | 2241 ft | 194 kts | 353° |
| 2026-05-04 13:18 | 45.42519 | 9.27918 | 2862 ft | 198 kts | 353° |
| 2026-05-04 13:19 | 45.43950 | 9.27760 | 2967 ft | 211 kts | 353° |
| 2026-05-04 13:19 | 45.45418 | 9.27600 | 3014 ft | 212 kts | 352° |
| 2026-05-04 13:19 | 45.46886 | 9.27441 | 3011 ft | 211 kts | 353° |
| 2026-05-04 13:19 | 45.48349 | 9.27285 | 3012 ft | 211 kts | 354° |
| 2026-05-04 13:20 | 45.49814 | 9.27128 | 3012 ft | 210 kts | 353° |
| 2026-05-04 13:20 | 45.51273 | 9.27233 | 3006 ft | 213 kts | 15° |
| 2026-05-04 13:20 | 45.52538 | 9.28353 | 3014 ft | 221 kts | 47° |
| 2026-05-04 13:20 | 45.53241 | 9.30490 | 3016 ft | 261 kts | 83° |
| 2026-05-04 13:21 | 45.52913 | 9.33039 | 3000 ft | 266 kts | 121° |
| 2026-05-04 13:21 | 45.51827 | 9.35198 | 3006 ft | 270 kts | 133° |
| 2026-05-04 13:21 | 45.50320 | 9.36688 | 3005 ft | 263 kts | 163° |
| 2026-05-04 13:21 | 45.48525 | 9.37157 | 3012 ft | 265 kts | 176° |
| 2026-05-04 13:22 | 45.46680 | 9.37336 | 3011 ft | 268 kts | 179° |
| 2026-05-04 13:22 | 45.44824 | 9.37510 | 3000 ft | 266 kts | 178° |
| 2026-05-04 13:22 | 45.42972 | 9.37667 | 3085 ft | 267 kts | 178° |
| 2026-05-04 13:22 | 45.41152 | 9.37800 | 3083 ft | 266 kts | 179° |
| 2026-05-04 13:23 | 45.39296 | 9.37917 | 3075 ft | 266 kts | 179° |
| 2026-05-04 13:23 | 45.37451 | 9.38026 | 3063 ft | 266 kts | 179° |
| 2026-05-04 13:23 | 45.35601 | 9.38142 | 3059 ft | 267 kts | 179° |
| 2026-05-04 13:23 | 45.33745 | 9.38272 | 3052 ft | 267 kts | 178° |
| 2026-05-04 13:24 | 45.31903 | 9.38391 | 3038 ft | 264 kts | 179° |
| 2026-05-04 13:24 | 45.30059 | 9.38513 | 3039 ft | 266 kts | 179° |
| 2026-05-04 13:24 | 45.28208 | 9.38653 | 3026 ft | 266 kts | 179° |
| 2026-05-04 13:25 | 45.24522 | 9.38914 | 3000 ft | 253 kts | 179° |
| 2026-05-04 13:25 | 45.22872 | 9.38965 | 2990 ft | 222 kts | 191° |
| 2026-05-04 13:25 | 45.21509 | 9.38189 | 2993 ft | 209 kts | 220° |
| 2026-05-04 13:25 | 45.20608 | 9.36627 | 2993 ft | 205 kts | 246° |
| 2026-05-04 13:26 | 45.20295 | 9.34686 | 2990 ft | 203 kts | 271° |
| 2026-05-04 13:26 | 45.20580 | 9.32742 | 2991 ft | 203 kts | 295° |
| 2026-05-04 13:26 | 45.21415 | 9.31135 | 2997 ft | 205 kts | 319° |
| 2026-05-04 13:26 | 45.22636 | 9.30169 | 2992 ft | 197 kts | 343° |
| 2026-05-04 13:27 | 45.23963 | 9.29914 | 2996 ft | 190 kts | 355° |
| 2026-05-04 13:27 | 45.25276 | 9.29775 | 3004 ft | 188 kts | 354° |
| 2026-05-04 13:27 | 45.26578 | 9.29635 | 3005 ft | 188 kts | 354° |
| 2026-05-04 13:27 | 45.27876 | 9.29495 | 3034 ft | 186 kts | 354° |
| 2026-05-04 13:28 | 45.29117 | 9.29363 | 3006 ft | 175 kts | 354° |
| 2026-05-04 13:28 | 45.30303 | 9.29235 | 2889 ft | 171 kts | 353° |
| 2026-05-04 13:28 | 45.31469 | 9.29110 | 2696 ft | 165 kts | 352° |
| 2026-05-04 13:28 | 45.32233 | 9.29028 | 2550 ft | 161 kts | 353° |
| 2026-05-04 13:29 | 45.33336 | 9.28910 | 2345 ft | 158 kts | 353° |
| 2026-05-04 13:29 | 45.34414 | 9.28793 | 2153 ft | 154 kts | 353° |
| 2026-05-04 13:29 | 45.35469 | 9.28681 | 1947 ft | 145 kts | 354° |
| 2026-05-04 13:29 | 45.36752 | 9.28542 | 1699 ft | 136 kts | 354° |
| 2026-05-04 13:30 | 45.37383 | 9.28474 | 1580 ft | 135 kts | 355° |
| 2026-05-04 13:30 | 45.38313 | 9.28373 | 1398 ft | 134 kts | 353° |
| 2026-05-04 13:30 | 45.39238 | 9.28279 | 1203 ft | 133 kts | 355° |
| 2026-05-04 13:30 | 45.40166 | 9.28181 | 1040 ft | 135 kts | 353° |
| 2026-05-04 13:31 | 45.41093 | 9.28078 | 856 ft | 132 kts | 351° |
| 2026-05-04 13:31 | 45.42005 | 9.27981 | 685 ft | 132 kts | 351° |
| 2026-05-04 13:31 | 45.42916 | 9.27879 | 510 ft | 130 kts | 352° |
| 2026-05-04 13:31 | 45.43810 | 9.27784 | 371 ft | 120 kts | 355° |
| 2026-05-04 13:32 | 45.44514 | 9.27706 | 365 ft | 78 kts | 355° |
| 2026-05-04 13:32 | 45.44963 | 9.27658 | 367 ft | 51 kts | 355° |
| 2026-05-04 13:32 | 45.45205 | 9.27633 | 363 ft | 27 kts | 360° |
| 2026-05-04 13:32 | 45.45374 | 9.27707 | 365 ft | 24 kts | 27° |
| 2026-05-04 13:33 | 45.45453 | 9.27800 | 367 ft | 11 kts | 68° |
| 2026-05-04 13:33 | 45.45457 | 9.27907 | 363 ft | 10 kts | 91° |
| 2026-05-04 13:33 | 45.45492 | 9.27977 | 368 ft | 10 kts | 14° |
| 2026-05-04 13:33 | 45.45564 | 9.27977 | 363 ft | 11 kts | 359° |
| 2026-05-04 13:34 | 45.45643 | 9.27980 | 367 ft | 12 kts | 2° |
| 2026-05-04 13:34 | 45.45713 | 9.27982 | 363 ft | 6 kts | 2° |
| 2026-05-04 13:34 | 45.45730 | 9.28023 | 363 ft | 6 kts | 94° |
| 2026-05-04 13:34 | 45.45729 | 9.28065 | 363 ft | 2 kts | 91° |
| 2026-05-04 13:35 | 45.45728 | 9.28076 | 363 ft | 0 kts | 91° |
| 2026-05-04 13:49 | 45.45728 | 9.28075 | 364 ft | 0 kts | 91° |